Date,TemperatureHighF,TemperatureAvgF,TemperatureLowF,DewpointHighF,DewpointAvgF,DewpointLowF,HumidityHigh,HumidityAvg,HumidityLow,PressureMaxIn,PressureMinIn,WindSpeedMaxMPH,WindSpeedAvgMPH,GustSpeedMaxMPH,PrecipitationSumIn
2013-3-1,38.7,30.5,25.8,29.1,25.9,24.0,94,84,62,30.62,30.52,4,0,4,0.04
2013-3-2,53.9,33.5,18.6,28.8,24.1,16.2,95,72,34,30.64,30.24,6,1,8,0.00
2013-3-3,48.3,36.0,27.8,34.3,28.0,23.4,95,74,44,30.24,29.84,11,1,15,0.15
2013-3-4,42.4,32.0,20.0,36.2,22.6,6.5,97,71,39,30.36,29.79,23,2,31,0.08
2013-3-5,49.9,26.2,9.3,19.6,10.6,-0.1,83,57,13,30.54,30.30,9,1,10,0.00
2013-3-6,58.8,35.4,16.8,28.6,20.1,12.6,87,60,22,30.32,29.92,11,1,11,0.00
2013-3-7,60.2,41.1,28.1,28.0,22.8,11.6,85,56,16,29.98,29.82,11,1,15,0.00
2013-3-8,54.9,38.0,27.6,33.5,26.0,19.9,94,66,26,29.87,29.64,13,1,15,0.10
2013-3-9,34.2,30.8,18.8,32.6,29.0,16.1,97,93,87,30.18,29.58,8,0,10,0.25
2013-3-10,43.6,25.2,10.1,29.9,19.2,7.5,96,80,49,30.45,30.18,7,1,7,0.07
2013-3-11,47.8,32.8,19.1,30.1,23.3,16.8,93,71,38,30.41,30.15,11,1,14,0.00
2013-3-12,52.3,39.1,29.5,30.4,28.1,25.9,88,67,38,30.30,30.19,9,1,10,0.00
2013-3-13,58.2,38.9,25.1,31.3,27.2,22.9,95,67,30,30.43,30.29,9,1,11,0.00
2013-3-14,64.5,42.1,25.2,30.6,26.2,22.0,91,60,21,30.44,30.22,7,1,11,0.00
2013-3-15,65.7,44.8,29.8,33.3,28.6,25.4,92,59,23,30.24,29.90,12,1,15,0.00
2013-3-16,55.5,43.7,32.5,36.8,30.9,28.0,84,62,37,29.91,29.71,12,1,15,0.00
2013-3-17,49.2,38.5,28.6,37.4,24.2,8.2,95,62,22,29.90,29.64,30,2,41,0.13
2013-3-18,47.3,35.8,26.5,21.0,15.2,10.3,63,44,24,30.05,29.90,22,2,23,0.00
2013-3-19,49.6,37.0,27.3,21.2,8.2,-11.8,71,38,8,30.27,30.04,13,2,18,0.00
2013-3-20,49.9,35.8,20.0,31.0,16.7,8.1,77,48,25,30.27,29.87,8,1,12,0.00
2013-3-21,44.3,35.8,29.1,36.1,28.2,17.5,96,76,39,29.93,29.65,17,1,28,0.40
2013-3-22,44.3,31.9,21.5,18.7,15.7,8.5,80,54,25,29.93,29.68,27,2,27,0.00
2013-3-23,29.6,23.3,13.5,18.6,13.0,7.3,82,65,42,30.31,29.84,15,2,18,0.01
2013-3-24,30.9,20.9,13.2,18.5,8.9,0.7,84,61,29,30.42,30.26,17,1,21,0.00
2013-3-25,41.7,23.6,8.4,12.4,4.8,0.0,77,48,19,30.51,30.33,9,1,12,0.01
2013-3-26,56.4,36.5,20.2,26.0,15.7,5.9,73,46,22,30.36,29.94,17,1,21,0.00
2013-3-27,60.6,45.1,29.5,30.6,24.5,13.6,85,49,17,30.02,29.88,17,2,22,0.00
2013-3-28,63.7,45.7,29.7,28.6,23.2,19.1,74,45,19,30.05,29.91,19,1,28,0.00
2013-3-29,59.5,48.6,38.3,39.3,30.9,26.5,82,53,30,30.09,29.95,20,2,22,0.01
2013-3-30,61.1,44.9,29.4,34.7,28.5,21.2,91,59,23,30.14,29.97,21,1,22,0.00
2013-3-31,65.1,44.6,26.9,28.6,23.8,16.9,82,49,16,30.12,29.90,13,2,16,0.00